Time;durP1;ratioP1;P1;durP2;ratioP2;P2;SDS_P1;SDS_P2;PMS_P1;PMS_P2;Temp;Humidity;BMP_temperature;BMP_pressure;BME280_temperature;BME280_humidity;BME280_pressure;Samples;Min_cycle;Max_cycle;Signal;HPM_P1;HPM_P2
2023/11/19 00:01:37;;;;;;;42.80;23.60;;;;;;;0.56;90.30;100406.33;219210;1257;141200;-68
2023/11/19 00:06:42;;;;;;;52.50;28.30;;;;;;;0.62;90.15;100398.05;220124;1257;140729;-69
2023/11/19 00:11:45;;;;;;;41.70;24.90;;;;;;;0.65;90.49;100391.77;218780;1257;153840;-69
2023/11/19 00:16:57;;;;;;;47.00;25.50;;;;;;;0.67;90.62;100389.23;220072;1257;140823;-68
2023/11/19 00:22:02;;;;;;;39.90;20.10;;;;;;;0.66;90.23;100385.31;220127;1257;140868;-70
2023/11/19 00:27:07;;;;;;;39.30;23.80;;;;;;;0.63;90.13;100382.86;220055;1257;141464;-70
2023/11/19 00:32:13;;;;;;;37.40;21.40;;;;;;;0.64;90.36;100380.48;219410;1257;142515;-68
2023/11/19 00:37:16;;;;;;;34.00;22.00;;;;;;;0.62;90.03;100372.24;218971;1257;140518;-68
2023/11/19 00:42:20;;;;;;;33.80;19.70;;;;;;;0.55;89.76;100352.60;220180;1257;141402;-69
2023/11/19 00:47:23;;;;;;;32.60;18.00;;;;;;;0.50;90.11;100344.73;220122;1257;140462;-69
2023/11/19 00:52:26;;;;;;;28.40;17.90;;;;;;;0.52;90.61;100353.90;219819;1257;140249;-69
2023/11/19 00:57:32;;;;;;;29.20;17.40;;;;;;;0.51;90.37;100349.98;219330;1257;142941;-69
2023/11/19 01:02:35;;;;;;;24.10;15.80;;;;;;;0.50;90.59;100346.96;219884;1257;141965;-67
2023/11/19 01:07:39;;;;;;;25.60;14.80;;;;;;;0.51;90.42;100330.27;220080;1257;140330;-67
2023/11/19 01:12:42;;;;;;;23.80;14.00;;;;;;;0.50;90.53;100329.42;219927;1256;141419;-68
2023/11/19 01:17:46;;;;;;;18.30;12.80;;;;;;;0.56;90.98;100337.59;219956;1257;346773;-69
2023/11/19 01:22:52;;;;;;;27.50;17.40;;;;;;;0.62;90.70;100325.11;219946;1256;141134;-68
2023/11/19 01:27:58;;;;;;;26.10;13.70;;;;;;;0.67;90.48;100334.33;220289;1256;140738;-69
2023/11/19 01:33:01;;;;;;;22.40;14.80;;;;;;;0.70;90.67;100315.31;220528;1255;141057;-68
2023/11/19 01:38:04;;;;;;;25.60;14.30;;;;;;;0.72;90.46;100300.79;220540;1256;140569;-68
2023/11/19 01:43:06;;;;;;;22.10;11.80;;;;;;;0.74;90.40;100278.40;219954;1256;141866;-67
2023/11/19 01:48:11;;;;;;;29.20;16.30;;;;;;;0.68;90.19;100262.14;220608;1256;141416;-69
2023/11/19 01:53:14;;;;;;;25.30;16.10;;;;;;;0.65;90.39;100247.98;219863;1254;141417;-69
2023/11/19 01:58:18;;;;;;;21.60;14.10;;;;;;;0.65;90.08;100257.77;220467;1256;140479;-68
2023/11/19 02:03:23;;;;;;;28.10;15.40;;;;;;;0.69;90.42;100252.27;218949;1257;142413;-68
2023/11/19 02:08:26;;;;;;;23.70;15.10;;;;;;;0.69;90.17;100238.30;220441;1254;141950;-68
2023/11/19 02:13:29;;;;;;;24.40;13.60;;;;;;;0.65;89.76;100221.36;220398;1256;141918;-70
2023/11/19 02:18:32;;;;;;;22.00;14.60;;;;;;;0.60;89.68;100215.29;220195;1256;140681;-70
2023/11/19 02:23:35;;;;;;;23.10;15.10;;;;;;;0.55;89.93;100212.48;220124;1256;140988;-70
2023/11/19 02:28:39;;;;;;;27.90;15.40;;;;;;;0.58;90.06;100205.35;220200;1256;140854;-70
2023/11/19 02:33:42;;;;;;;19.90;13.10;;;;;;;0.62;90.28;100199.88;219541;1256;140449;-69
2023/11/19 02:38:45;;;;;;;27.30;14.40;;;;;;;0.63;89.98;100179.77;220469;1256;140216;-69
2023/11/19 02:43:48;;;;;;;21.00;11.90;;;;;;;0.57;89.68;100145.93;220283;1256;141184;-69
2023/11/19 02:48:51;;;;;;;25.80;15.30;;;;;;;0.47;89.89;100129.21;220449;1256;140818;-69
2023/11/19 02:53:55;;;;;;;24.30;13.00;;;;;;;0.43;89.61;100129.13;220438;1256;140318;-68
2023/11/19 02:58:58;;;;;;;24.50;15.00;;;;;;;0.42;89.69;100123.48;220541;1255;140751;-69
2023/11/19 03:04:02;;;;;;;26.10;14.10;;;;;;;0.41;90.14;100117.42;220395;1256;141392;-69
2023/11/19 03:09:09;;;;;;;21.10;11.80;;;;;;;0.46;90.39;100110.39;218627;1256;141291;-69
2023/11/19 03:14:13;;;;;;;23.60;13.30;;;;;;;0.54;89.86;100115.77;220215;1256;141055;-68
2023/11/19 03:19:16;;;;;;;20.40;12.70;;;;;;;0.59;89.73;100115.55;218640;1256;141559;-67
2023/11/19 03:24:28;;;;;;;19.40;12.00;;;;;;;0.60;90.02;100116.66;220216;1257;141407;-69
2023/11/19 03:29:31;;;;;;;24.60;13.90;;;;;;;0.59;89.85;100110.63;220194;1256;141211;-70
2023/11/19 03:34:34;;;;;;;22.80;12.10;;;;;;;0.64;90.07;100111.33;220067;1256;140687;-70
2023/11/19 03:39:37;;;;;;;27.40;15.10;;;;;;;0.65;89.86;100105.76;220025;1256;141403;-68
2023/11/19 03:44:39;;;;;;;25.00;13.80;;;;;;;0.70;90.03;100101.23;220092;1256;141477;-71
2023/11/19 03:49:42;;;;;;;21.10;11.40;;;;;;;0.71;89.54;100089.21;220121;1255;140613;-70
2023/11/19 03:54:45;;;;;;;14.60;9.30;;;;;;;0.70;89.99;100079.77;220421;1256;141206;-69
2023/11/19 03:59:48;;;;;;;20.90;13.10;;;;;;;0.69;89.40;100065.30;220521;1256;141304;-68
2023/11/19 04:04:51;;;;;;;21.20;12.20;;;;;;;0.67;89.44;100054.34;220298;1256;140206;-68
2023/11/19 04:09:54;;;;;;;17.70;11.80;;;;;;;0.66;89.30;100046.64;217840;1256;141259;-67
2023/11/19 04:14:57;;;;;;;15.30;9.60;;;;;;;0.61;89.30;100029.38;220058;1256;140893;-67
2023/11/19 04:20:04;;;;;;;18.80;10.50;;;;;;;0.52;88.75;100008.70;218996;1256;141111;-66
2023/11/19 04:25:08;;;;;;;12.30;9.10;;;;;;;0.45;88.88;100002.20;220350;1256;140666;-70
2023/11/19 04:30:13;;;;;;;14.70;9.30;;;;;;;0.40;88.78;99993.41;218698;1254;140829;-71
2023/11/19 04:35:16;;;;;;;21.10;12.30;;;;;;;0.33;88.87;99988.02;220196;1256;140617;-72
2023/11/19 04:40:22;;;;;;;15.80;11.40;;;;;;;0.26;89.09;99977.19;220058;1256;140055;-71
2023/11/19 04:45:25;;;;;;;16.00;8.90;;;;;;;0.27;88.93;99969.23;218226;1256;140279;-68
2023/11/19 04:50:28;;;;;;;20.20;11.80;;;;;;;0.29;89.11;99959.56;216932;1256;140936;-67
2023/11/19 04:55:31;;;;;;;23.00;12.50;;;;;;;0.28;89.25;99948.71;220473;1255;140347;-67
2023/11/19 05:00:33;;;;;;;23.20;15.50;;;;;;;0.24;89.36;99938.87;219570;1256;140831;-66
2023/11/19 05:05:36;;;;;;;21.00;12.20;;;;;;;0.23;89.58;99917.60;220395;1259;140943;-65
2023/11/19 05:10:40;;;;;;;22.20;12.70;;;;;;;0.20;89.24;99918.39;220431;1256;140561;-65
2023/11/19 05:15:43;;;;;;;25.10;15.10;;;;;;;0.24;89.92;99910.67;218080;1256;140242;-65
2023/11/19 05:20:46;;;;;;;25.00;13.50;;;;;;;0.31;89.97;99913.72;220374;1256;141249;-65
2023/11/19 05:25:49;;;;;;;26.70;15.70;;;;;;;0.36;89.87;99903.42;220167;1256;140552;-66
2023/11/19 05:30:52;;;;;;;25.40;13.00;;;;;;;0.42;89.93;99909.59;220183;1256;140694;-68
2023/11/19 05:35:57;;;;;;;21.90;13.30;;;;;;;0.45;89.64;99906.54;220317;1256;140598;-68
2023/11/19 05:41:00;;;;;;;23.60;13.80;;;;;;;0.45;89.76;99899.63;220168;1256;142188;-70
2023/11/19 05:46:03;;;;;;;24.70;13.80;;;;;;;0.46;89.57;99900.61;220221;1256;141548;-69
2023/11/19 05:51:20;;;;;;;31.60;17.50;;;;;;;0.44;89.76;99886.71;220485;1256;141246;-70
2023/11/19 05:56:24;;;;;;;31.40;18.70;;;;;;;0.36;89.32;99869.63;220468;1255;140292;-70
2023/11/19 06:01:29;;;;;;;36.90;17.90;;;;;;;0.34;89.69;99874.41;220016;1257;142097;-71
2023/11/19 06:06:32;;;;;;;27.30;15.30;;;;;;;0.41;89.85;99884.41;220020;1256;140407;-70
2023/11/19 06:11:35;;;;;;;25.60;14.90;;;;;;;0.46;89.73;99880.51;220238;1257;141076;-69
2023/11/19 06:16:39;;;;;;;26.10;14.00;;;;;;;0.48;89.66;99870.73;220170;1257;141487;-69
2023/11/19 06:21:46;;;;;;;30.60;16.60;;;;;;;0.46;89.53;99853.63;219975;1256;141330;-68
2023/11/19 06:26:50;;;;;;;18.60;11.20;;;;;;;0.41;89.43;99840.98;219767;1256;140614;-68
2023/11/19 06:31:54;;;;;;;28.30;16.40;;;;;;;0.32;89.38;99829.16;220000;1256;141112;-70
2023/11/19 06:36:57;;;;;;;23.10;12.10;;;;;;;0.31;89.42;99829.52;220162;1256;140456;-68
2023/11/19 06:42:01;;;;;;;31.20;17.10;;;;;;;0.33;89.78;99825.38;220170;1255;140124;-68
2023/11/19 06:47:04;;;;;;;25.50;15.00;;;;;;;0.34;89.79;99818.64;220289;1257;141359;-68
2023/11/19 06:52:07;;;;;;;29.20;16.40;;;;;;;0.34;89.36;99812.34;217659;1256;140854;-67
2023/11/19 06:57:09;;;;;;;29.00;14.50;;;;;;;0.30;89.61;99815.60;219084;1256;140226;-67
2023/11/19 07:02:14;;;;;;;33.90;15.90;;;;;;;0.29;89.71;99809.41;220210;1256;140736;-69
2023/11/19 07:07:18;;;;;;;33.70;17.70;;;;;;;0.31;89.77;99800.33;219790;1256;142204;-68
2023/11/19 07:12:20;;;;;;;41.60;21.40;;;;;;;0.28;89.40;99789.14;220386;1256;141056;-68
2023/11/19 07:17:24;;;;;;;33.00;18.60;;;;;;;0.26;89.56;99780.55;219261;1256;141083;-68
2023/11/19 07:22:29;;;;;;;29.00;16.00;;;;;;;0.31;89.60;99780.60;220135;1256;139999;-68
2023/11/19 07:27:33;;;;;;;30.20;15.00;;;;;;;0.38;89.96;99771.10;219856;1257;141623;-68
2023/11/19 07:32:38;;;;;;;25.00;16.50;;;;;;;0.47;89.80;99761.48;219799;1256;140441;-67
2023/11/19 07:37:42;;;;;;;28.70;15.90;;;;;;;0.62;90.14;99756.80;219975;1257;141157;-68
2023/11/19 07:42:45;;;;;;;34.50;18.00;;;;;;;0.76;89.90;99751.27;220197;1255;141375;-68
2023/11/19 07:47:48;;;;;;;32.00;16.40;;;;;;;0.90;89.77;99737.79;220121;1256;140031;-68
2023/11/19 07:52:50;;;;;;;34.40;18.40;;;;;;;1.00;89.77;99725.96;220245;1256;140500;-69
2023/11/19 07:57:53;;;;;;;25.70;16.00;;;;;;;1.13;90.20;99711.06;220272;1255;141170;-68
2023/11/19 08:02:56;;;;;;;26.80;17.10;;;;;;;1.27;89.87;99699.27;220435;1256;141073;-70
2023/11/19 08:07:59;;;;;;;32.90;17.80;;;;;;;1.31;89.57;99686.30;220401;1259;140302;-68
2023/11/19 08:13:02;;;;;;;25.80;14.10;;;;;;;1.37;89.37;99676.35;220388;1256;141296;-69
2023/11/19 08:18:07;;;;;;;21.20;12.20;;;;;;;1.42;88.95;99669.67;220421;1255;141760;-68
2023/11/19 08:23:13;;;;;;;22.20;13.50;;;;;;;1.44;88.91;99656.49;219331;1254;150934;-65
2023/11/19 08:28:17;;;;;;;28.40;15.80;;;;;;;1.52;88.76;99641.95;220341;1256;140401;-68
2023/11/19 08:33:24;;;;;;;24.90;14.90;;;;;;;1.56;88.82;99633.15;219978;1256;142223;-66
2023/11/19 08:38:26;;;;;;;27.90;15.00;;;;;;;1.58;88.53;99630.44;220321;1255;140452;-68
2023/11/19 08:43:32;;;;;;;26.20;13.80;;;;;;;1.62;88.51;99619.46;219706;1256;140788;-66
2023/11/19 08:48:35;;;;;;;31.10;17.70;;;;;;;1.58;88.13;99615.56;219626;1258;141007;-68
2023/11/19 08:53:37;;;;;;;23.70;14.80;;;;;;;1.55;88.28;99610.83;220490;1256;142294;-67
2023/11/19 08:58:41;;;;;;;25.50;15.60;;;;;;;1.58;88.14;99602.42;219807;1257;140609;-69
2023/11/19 09:03:46;;;;;;;27.80;15.60;;;;;;;1.58;88.10;99586.73;217645;1256;140102;-66
2023/11/19 09:08:53;;;;;;;22.40;13.60;;;;;;;1.49;87.80;99578.67;220137;1256;141346;-69
2023/11/19 09:13:58;;;;;;;22.50;12.40;;;;;;;1.45;88.23;99571.13;220155;1256;140709;-70
2023/11/19 09:19:02;;;;;;;28.00;14.70;;;;;;;1.47;88.25;99552.98;220412;1255;140257;-72
2023/11/19 09:24:09;;;;;;;21.40;12.80;;;;;;;1.51;88.17;99544.30;220330;1259;244156;-70
2023/11/19 09:29:14;;;;;;;27.90;15.40;;;;;;;1.53;87.89;99530.05;220177;1259;140931;-71
2023/11/19 09:34:18;;;;;;;28.90;14.50;;;;;;;1.49;87.88;99527.95;220157;1256;140822;-68
2023/11/19 09:39:22;;;;;;;29.20;14.80;;;;;;;1.47;87.93;99522.31;219979;1256;140310;-69
2023/11/19 09:44:27;;;;;;;27.90;15.80;;;;;;;1.56;88.29;99513.88;220570;1256;140229;-69
2023/11/19 09:49:32;;;;;;;25.30;13.80;;;;;;;1.60;87.98;99499.19;219475;1257;141137;-69
2023/11/19 09:55:00;;;;;;;27.20;14.10;;;;;;;1.59;87.61;99478.88;220288;1257;142026;-70
2023/11/19 10:00:04;;;;;;;27.50;15.20;;;;;;;1.59;87.94;99469.42;220359;1256;140789;-70
2023/11/19 10:05:14;;;;;;;29.50;15.80;;;;;;;1.67;87.81;99454.80;220367;1255;141530;-69
2023/11/19 10:10:21;;;;;;;29.20;15.40;;;;;;;1.75;87.92;99441.98;218657;1259;140696;-70
2023/11/19 10:15:26;;;;;;;30.10;15.10;;;;;;;1.84;88.00;99417.89;220224;1256;140463;-68
2023/11/19 10:20:36;;;;;;;23.90;14.60;;;;;;;1.89;87.93;99395.70;220183;1258;140968;-71
2023/11/19 10:25:42;;;;;;;31.80;15.60;;;;;;;2.02;87.98;99375.90;220293;1256;141970;-70
2023/11/19 10:30:49;;;;;;;31.00;15.40;;;;;;;2.20;87.94;99369.73;218738;1256;207791;-70
2023/11/19 10:35:58;;;;;;;32.40;19.90;;;;;;;2.45;87.98;99363.34;220170;1256;141644;-70
2023/11/19 10:41:05;;;;;;;36.20;19.90;;;;;;;2.67;87.71;99352.80;220206;1256;141595;-70
2023/11/19 10:46:13;;;;;;;33.00;16.20;;;;;;;2.97;87.85;99341.84;220260;1257;142159;-70
2023/11/19 10:51:23;;;;;;;27.50;15.50;;;;;;;3.09;87.03;99332.89;217132;1256;145831;-69
2023/11/19 10:56:30;;;;;;;24.30;12.30;;;;;;;3.21;86.98;99323.34;219669;1257;141041;-71
2023/11/19 11:01:45;;;;;;;24.80;13.80;;;;;;;3.31;86.74;99317.10;220487;1257;140333;-70
2023/11/19 11:06:51;;;;;;;24.90;14.90;;;;;;;3.26;86.27;99309.66;220305;1256;140099;-71
2023/11/19 11:11:55;;;;;;;26.50;14.90;;;;;;;3.19;86.17;99297.40;219708;1256;140333;-70
2023/11/19 11:16:58;;;;;;;19.60;10.60;;;;;;;3.19;86.06;99291.23;220273;1256;141917;-69
2023/11/19 11:22:04;;;;;;;23.50;12.60;;;;;;;3.26;86.27;99283.00;220301;1256;140548;-68
2023/11/19 11:27:23;;;;;;;20.00;12.70;;;;;;;3.27;85.91;99280.48;220079;1258;141871;-69
2023/11/19 11:32:29;;;;;;;;;;;;;;;3.17;85.67;99274.95;220229;1257;140887;-69
2023/11/19 11:37:45;;;;;;;22.70;13.00;;;;;;;3.02;85.80;99270.20;218569;1256;127120;-67
2023/11/19 11:42:48;;;;;;;17.90;10.20;;;;;;;2.98;86.09;99264.77;220161;1256;144120;-66
2023/11/19 11:47:54;;;;;;;16.20;10.60;;;;;;;2.85;86.08;99264.02;220406;1257;140767;-65
2023/11/19 11:53:00;;;;;;;25.30;14.20;;;;;;;2.70;86.15;99262.13;220397;1256;142022;-64
2023/11/19 11:58:06;;;;;;;19.70;12.10;;;;;;;2.55;86.04;99261.73;220202;1256;142117;-67
2023/11/19 12:03:09;;;;;;;17.50;8.90;;;;;;;2.38;85.94;99253.61;219499;1256;140108;-68
2023/11/19 12:08:15;;;;;;;17.10;8.70;;;;;;;2.12;85.62;99250.91;220170;1256;139892;-66
2023/11/19 12:13:23;;;;;;;14.50;9.10;;;;;;;1.93;86.05;99253.99;220258;1259;151668;-67
2023/11/19 12:18:30;;;;;;;17.00;8.60;;;;;;;1.69;86.06;99245.45;220319;1256;140199;-66
2023/11/19 12:23:34;;;;;;;15.70;10.10;;;;;;;1.49;86.20;99237.11;220506;1257;140209;-66
2023/11/19 12:28:38;;;;;;;22.00;12.80;;;;;;;1.35;86.55;99229.17;220307;1257;140512;-65
2023/11/19 12:33:47;;;;;;;;;;;;;;;1.27;86.76;99228.04;220346;1256;140495;-68
2023/11/19 12:38:53;;;;;;;19.30;10.30;;;;;;;1.14;86.94;99221.46;220615;1257;126711;-69
2023/11/19 12:44:13;;;;;;;17.70;11.50;;;;;;;1.04;87.44;99214.45;220275;1257;140621;-63
2023/11/19 12:49:22;;;;;;;17.10;10.30;;;;;;;0.95;87.34;99185.60;217698;1256;249456;-64
2023/11/19 12:54:42;;;;;;;24.20;13.00;;;;;;;0.87;87.91;99158.25;217720;1257;140889;-63
2023/11/19 12:59:59;;;;;;;24.60;14.10;;;;;;;0.79;88.20;99145.92;219670;1256;141366;-64
2023/11/19 13:05:31;;;;;;;15.30;9.10;;;;;;;0.74;88.73;99125.20;218222;1258;140575;-65
2023/11/19 13:10:56;;;;;;;25.10;11.50;;;;;;;0.74;89.00;99136.39;220424;1259;142122;-64
2023/11/19 13:16:45;;;;;;;19.20;12.10;;;;;;;0.77;88.87;99127.14;219225;1259;1493505;-66
2023/11/19 13:22:07;;;;;;;23.40;11.80;;;;;;;0.77;89.54;99116.20;218639;1260;140500;-65
2023/11/19 13:27:14;;;;;;;20.20;10.70;;;;;;;0.78;89.36;99097.45;220118;1259;140784;-64
2023/11/19 13:32:24;;;;;;;20.70;12.70;;;;;;;0.75;89.72;99085.38;220163;1256;140871;-63
2023/11/19 13:37:31;;;;;;;17.30;11.60;;;;;;;0.76;90.04;99076.44;219283;1258;140714;-64
2023/11/19 13:42:40;;;;;;;20.50;11.10;;;;;;;0.75;90.17;99081.51;220246;1259;141271;-66
2023/11/19 13:47:47;;;;;;;20.70;10.50;;;;;;;0.79;90.44;99078.73;220152;1260;140963;-62
2023/11/19 13:52:53;;;;;;;22.70;12.00;;;;;;;0.81;90.27;99075.33;220097;1259;140901;-64
2023/11/19 13:57:56;;;;;;;18.30;10.70;;;;;;;0.82;90.22;99062.26;220171;1256;140944;-64
2023/11/19 14:02:59;;;;;;;21.70;12.90;;;;;;;0.84;90.24;99057.51;220088;1259;142156;-63
2023/11/19 14:08:03;;;;;;;18.80;11.10;;;;;;;0.80;90.42;99037.56;220090;1259;140797;-64
2023/11/19 14:13:11;;;;;;;21.10;12.60;;;;;;;0.79;90.61;99044.50;219958;1256;140939;-62
2023/11/19 14:18:14;;;;;;;14.90;9.40;;;;;;;0.83;90.75;99043.65;220328;1256;140653;-63
2023/11/19 14:23:25;;;;;;;16.90;10.00;;;;;;;0.88;90.73;99035.86;220143;1257;141117;-63
2023/11/19 14:28:52;;;;;;;9.90;8.10;;;;;;;0.85;91.00;99026.36;220279;1259;140938;-64
2023/11/19 14:34:00;;;;;;;17.20;10.60;;;;;;;0.83;90.73;99011.84;217323;1259;139767;-64
2023/11/19 14:39:07;;;;;;;16.40;12.20;;;;;;;0.78;91.25;99003.66;220214;1257;140896;-64
2023/11/19 14:44:13;;;;;;;17.80;10.50;;;;;;;0.78;91.19;99001.72;220234;1256;142177;-64
2023/11/19 14:49:19;;;;;;;19.30;14.60;;;;;;;0.77;91.49;99006.02;217554;1256;141777;-63
2023/11/19 14:54:24;;;;;;;17.50;10.30;;;;;;;0.76;91.84;99002.73;220134;1256;141160;-65
2023/11/19 14:59:28;;;;;;;14.40;8.50;;;;;;;0.72;91.92;98999.88;219977;1260;140037;-63
2023/11/19 15:04:32;;;;;;;16.70;9.80;;;;;;;0.71;92.47;98996.28;220071;1256;140012;-64
2023/11/19 15:09:36;;;;;;;19.00;11.00;;;;;;;0.72;92.92;98996.17;219635;1260;140243;-64
2023/11/19 15:14:40;;;;;;;15.10;9.00;;;;;;;0.76;93.22;98999.43;220079;1258;141743;-63
2023/11/19 15:19:50;;;;;;;19.40;10.20;;;;;;;0.79;92.98;98996.36;219766;1260;140121;-63
2023/11/19 15:24:55;;;;;;;16.70;9.90;;;;;;;0.78;92.95;98992.07;220160;1260;141581;-64
2023/11/19 15:29:58;;;;;;;18.00;10.20;;;;;;;0.77;93.06;98984.59;220535;1259;141090;-65
2023/11/19 15:35:01;;;;;;;19.00;11.70;;;;;;;0.79;93.17;98978.38;220432;1256;142019;-65
2023/11/19 15:40:07;;;;;;;20.50;12.40;;;;;;;0.77;92.86;98975.52;220115;1257;141243;-66
2023/11/19 15:45:11;;;;;;;19.40;11.40;;;;;;;0.75;93.03;98971.54;220051;1256;142305;-65
2023/11/19 15:50:15;;;;;;;21.20;11.40;;;;;;;0.78;93.30;98969.75;219124;1260;140631;-65
2023/11/19 15:55:19;;;;;;;21.70;11.50;;;;;;;0.81;93.42;98969.05;219132;1258;140586;-64
2023/11/19 16:00:23;;;;;;;20.10;11.40;;;;;;;0.84;93.40;98960.00;220163;1257;140951;-65
2023/11/19 16:05:26;;;;;;;15.50;9.70;;;;;;;0.86;93.38;98960.21;220122;1257;221302;-64
2023/11/19 16:10:32;;;;;;;15.60;10.30;;;;;;;0.86;93.65;98950.48;220048;1257;140746;-65
2023/11/19 16:15:35;;;;;;;18.10;10.70;;;;;;;0.92;93.90;98944.48;220175;1257;141072;-64
2023/11/19 16:20:42;;;;;;;20.00;14.10;;;;;;;0.95;93.74;98937.35;220137;1257;141036;-65
2023/11/19 16:25:45;;;;;;;18.60;9.80;;;;;;;0.99;93.73;98931.05;220216;1257;141115;-64
2023/11/19 16:30:52;;;;;;;14.00;10.20;;;;;;;1.04;94.25;98931.16;219998;1256;140652;-65
2023/11/19 16:36:00;;;;;;;15.10;9.20;;;;;;;1.05;94.08;98920.52;220139;1257;142876;-65
2023/11/19 16:41:07;;;;;;;17.80;10.00;;;;;;;1.08;94.29;98930.30;219501;1257;141097;-65
2023/11/19 16:46:09;;;;;;;20.40;11.00;;;;;;;1.08;94.45;98926.78;219587;1258;139876;-67
2023/11/19 16:51:13;;;;;;;17.80;12.30;;;;;;;1.11;94.50;98927.45;220152;1257;141067;-65
2023/11/19 16:56:21;;;;;;;19.60;11.30;;;;;;;1.13;94.09;98922.70;217992;1258;142244;-66
2023/11/19 17:01:27;;;;;;;16.30;8.10;;;;;;;1.14;94.58;98923.88;220008;1256;140275;-63
2023/11/19 17:06:32;;;;;;;16.10;11.50;;;;;;;1.16;94.78;98917.02;218325;1256;140863;-63
2023/11/19 17:11:35;;;;;;;19.40;10.30;;;;;;;1.20;94.62;98916.20;220191;1256;141717;-64
2023/11/19 17:16:39;;;;;;;14.40;10.00;;;;;;;1.20;94.99;98904.61;220376;1257;140559;-62
2023/11/19 17:21:43;;;;;;;13.70;9.60;;;;;;;1.24;94.94;98895.02;217159;1256;140576;-63
2023/11/19 17:26:47;;;;;;;15.80;8.90;;;;;;;1.24;95.16;98887.67;219989;1256;139893;-64
2023/11/19 17:31:51;;;;;;;17.10;11.40;;;;;;;1.26;95.12;98879.09;219765;1258;141637;-63
2023/11/19 17:36:54;;;;;;;19.10;9.40;;;;;;;1.33;95.30;98881.75;219655;1257;141126;-63
2023/11/19 17:42:01;;;;;;;16.00;9.90;;;;;;;1.36;95.28;98872.40;220025;1257;140734;-65
2023/11/19 17:47:05;;;;;;;16.90;11.30;;;;;;;1.37;95.47;98868.64;218967;1257;140525;-66
2023/11/19 17:52:10;;;;;;;16.90;11.70;;;;;;;1.39;95.55;98864.52;220016;1257;141427;-65
2023/11/19 17:57:15;;;;;;;15.50;11.00;;;;;;;1.41;95.64;98858.80;220330;1257;141532;-64
2023/11/19 18:02:20;;;;;;;22.80;12.60;;;;;;;1.45;95.46;98863.59;220052;1257;142803;-64
2023/11/19 18:07:47;;;;;;;17.90;11.00;;;;;;;1.55;95.91;98878.27;220236;1256;140521;-64
2023/11/19 18:12:53;;;;;;;18.20;10.90;;;;;;;1.64;95.84;98867.59;220211;1256;141109;-65
2023/11/19 18:18:04;;;;;;;19.40;10.60;;;;;;;1.71;96.02;98871.26;220174;1256;140413;-65
2023/11/19 18:23:09;;;;;;;28.90;14.20;;;;;;;1.77;95.92;98867.47;220096;1256;141172;-66
2023/11/19 18:28:16;;;;;;;27.60;17.20;;;;;;;1.85;96.00;98872.23;220179;1256;141713;-67
2023/11/19 18:33:19;;;;;;;27.40;16.40;;;;;;;1.95;96.24;98867.73;220235;1256;140335;-68
2023/11/19 18:38:23;;;;;;;34.00;23.20;;;;;;;2.04;96.23;98874.45;220422;1256;140631;-67
2023/11/19 18:43:47;;;;;;;29.40;16.70;;;;;;;2.11;95.94;98861.13;220385;1256;141709;-67
2023/11/19 18:48:52;;;;;;;20.80;13.00;;;;;;;2.13;95.93;98854.80;220385;1254;141048;-68
2023/11/19 18:53:55;;;;;;;28.10;16.50;;;;;;;2.15;95.89;98843.91;219055;1257;141912;-67
2023/11/19 18:59:00;;;;;;;23.30;15.10;;;;;;;2.18;96.23;98838.82;220387;1257;140755;-67
2023/11/19 19:04:06;;;;;;;23.00;14.20;;;;;;;2.26;96.42;98836.89;220405;1256;141387;-68
2023/11/19 19:09:09;;;;;;;25.40;14.70;;;;;;;2.34;96.51;98834.09;218260;1255;140287;-66
2023/11/19 19:14:11;;;;;;;20.80;13.30;;;;;;;2.40;96.48;98827.02;218357;1257;140885;-65
2023/11/19 19:19:13;;;;;;;18.40;14.50;;;;;;;2.43;96.61;98829.00;220279;1254;141109;-66
2023/11/19 19:24:17;;;;;;;26.30;14.60;;;;;;;2.46;96.82;98817.64;217541;1256;140404;-65
2023/11/19 19:29:20;;;;;;;25.80;14.70;;;;;;;2.53;97.14;98819.05;220341;1255;141009;-66
2023/11/19 19:34:24;;;;;;;23.40;14.00;;;;;;;2.60;97.38;98813.70;218722;1259;141643;-66
2023/11/19 19:39:28;;;;;;;21.20;13.20;;;;;;;2.70;97.54;98815.27;220059;1256;140399;-66
2023/11/19 19:44:36;;;;;;;24.80;14.70;;;;;;;2.81;97.80;98810.11;219247;1257;245868;-66
2023/11/19 19:49:39;;;;;;;19.50;11.20;;;;;;;2.90;97.72;98808.63;220018;1255;142455;-69
2023/11/19 19:54:41;;;;;;;22.10;13.90;;;;;;;2.98;97.76;98803.18;220408;1256;140399;-66
2023/11/19 19:59:43;;;;;;;16.90;13.10;;;;;;;3.08;97.91;98803.94;219667;1256;142040;-66
2023/11/19 20:04:47;;;;;;;19.50;13.00;;;;;;;3.17;98.02;98807.75;220234;1256;140691;-66
2023/11/19 20:09:52;;;;;;;22.60;14.00;;;;;;;3.27;98.09;98805.04;220072;1256;142375;-66
2023/11/19 20:14:56;;;;;;;19.00;12.50;;;;;;;3.38;98.57;98802.98;220168;1256;140522;-67
2023/11/19 20:20:00;;;;;;;19.50;12.70;;;;;;;3.51;98.59;98800.69;220412;1255;142214;-67
2023/11/19 20:25:05;;;;;;;25.50;13.90;;;;;;;3.64;98.84;98802.67;220423;1255;140324;-66
2023/11/19 20:30:08;;;;;;;17.20;11.30;;;;;;;3.78;99.11;98805.08;220343;1256;141508;-67
2023/11/19 20:35:12;;;;;;;18.60;12.80;;;;;;;3.91;99.28;98808.09;220165;1255;140949;-66
2023/11/19 20:40:15;;;;;;;16.20;9.60;;;;;;;4.02;99.26;98802.95;220180;1256;140647;-66
2023/11/19 20:45:17;;;;;;;32.70;12.00;;;;;;;4.13;99.59;98797.23;219987;1256;141056;-67
2023/11/19 20:50:24;;;;;;;13.00;6.20;;;;;;;4.25;99.87;98789.83;220083;1256;141367;-67
2023/11/19 20:55:26;;;;;;;18.00;10.20;;;;;;;4.43;100.00;98792.91;219879;1257;140748;-67
2023/11/19 21:00:29;;;;;;;14.00;7.50;;;;;;;4.59;100.00;98798.96;219929;1256;141543;-67
2023/11/19 21:05:32;;;;;;;14.60;8.10;;;;;;;4.76;100.00;98804.06;220173;1255;141595;-67
2023/11/19 21:10:36;;;;;;;20.50;9.00;;;;;;;4.91;100.00;98801.16;217384;1256;141413;-67
2023/11/19 21:15:39;;;;;;;14.90;8.50;;;;;;;5.04;100.00;98802.60;219989;1256;141582;-67
2023/11/19 21:20:52;;;;;;;12.20;7.80;;;;;;;5.17;100.00;98804.44;220097;1256;140892;-67
2023/11/19 21:25:57;;;;;;;15.50;6.70;;;;;;;5.31;100.00;98809.89;220015;1256;140736;-67
2023/11/19 21:30:59;;;;;;;20.80;9.70;;;;;;;5.45;100.00;98813.39;220051;1256;140049;-67
2023/11/19 21:36:01;;;;;;;18.60;7.50;;;;;;;5.56;100.00;98816.71;220343;1256;140351;-67
2023/11/19 21:41:04;;;;;;;10.40;7.10;;;;;;;5.66;100.00;98815.68;220505;1256;140581;-68
2023/11/19 21:46:07;;;;;;;16.30;7.40;;;;;;;5.77;100.00;98808.99;219648;1256;140663;-67
2023/11/19 21:51:11;;;;;;;11.80;6.30;;;;;;;5.87;100.00;98806.84;220000;1256;140582;-67
2023/11/19 21:56:14;;;;;;;7.80;5.30;;;;;;;5.94;100.00;98806.30;219164;1256;140524;-66
2023/11/19 22:01:17;;;;;;;17.20;9.10;;;;;;;6.02;100.00;98802.08;220321;1256;140768;-67
2023/11/19 22:06:20;;;;;;;9.80;6.40;;;;;;;6.10;100.00;98802.48;220541;1256;140949;-67
2023/11/19 22:11:27;;;;;;;11.60;6.90;;;;;;;6.18;100.00;98797.62;220384;1255;141463;-67
2023/11/19 22:16:31;;;;;;;14.70;6.30;;;;;;;6.26;100.00;98798.88;220513;1255;140239;-67
2023/11/19 22:21:34;;;;;;;13.10;7.30;;;;;;;6.31;100.00;98795.86;220250;1256;141079;-67
2023/11/19 22:26:37;;;;;;;14.10;8.80;;;;;;;6.39;100.00;98797.48;220197;1256;140165;-67
2023/11/19 22:31:40;;;;;;;12.10;6.70;;;;;;;6.46;100.00;98804.83;220158;1256;140478;-67
2023/11/19 22:36:43;;;;;;;13.80;6.40;;;;;;;6.52;100.00;98810.95;220093;1256;141508;-67
2023/11/19 22:41:45;;;;;;;16.10;6.40;;;;;;;6.57;100.00;98814.04;220326;1256;140789;-68
2023/11/19 22:46:48;;;;;;;16.40;7.00;;;;;;;6.61;100.00;98814.48;219580;1256;141397;-68
2023/11/19 22:51:51;;;;;;;12.10;5.00;;;;;;;6.63;100.00;98812.00;219990;1256;142238;-67
2023/11/19 22:56:54;;;;;;;7.50;4.20;;;;;;;6.66;100.00;98808.40;217770;1257;141017;-67
2023/11/19 23:01:57;;;;;;;11.00;5.30;;;;;;;6.66;100.00;98805.51;217349;1259;140543;-67
2023/11/19 23:07:01;;;;;;;16.40;7.00;;;;;;;6.64;100.00;98811.13;220017;1256;140857;-67